Ruskin, FL (33570)

4:37 PM EDT on July 05, 2015 (GMT -0400)
Bay Park | | Change Station
CLOSE
Current Station
Personal Weather Station
Location: Ruskin, FL
Elevation: 16 ft
Nearby Weather Stations

Elev 16 ft 27.73 °N, 82.42 °W | Updated 12 minutes ago

Partly Cloudy
Partly Cloudy
97.0 °F
Feels Like 111 °F
N
3.2
Wind Variable Wind from NNE

Today
High -- | Low -- °F
--% Chance of Precip.
Yesterday
High -- | Low -- °F
Precip. -- in
6:39 AM 8:29 PM
Waning Gibbous, 82% visible
Pressure 30.10 in
Visibility 10.0 miles
Clouds Clear
Heat Index 111 °F
Dew Point 76 °F
Humidity 51%
Rainfall 0.00 in
Snow Depth Not available.
UV 9 out of 12
Pollen 3.70 out of 12
Air Quality Not available.
Flu Activity Not available.
SPECI KMCF 052032Z AUTO VRB06KT 10SM CLR 30/23 A3010 RMK AO2 LTG DSNT NW-NE AND S-SW TSE32

More Conditions Fewer Conditions

Pressure 30.10 in
Visibility 10.0 miles
Clouds Clear
Heat Index 111 °F
Dew Point 76 °F
Humidity 51%
Rainfall 0.00 in
Snow Depth Not available.
UV 9 out of 12
Pollen 3.70 out of 12
Air Quality Not available.
Flu Activity Not available.
SPECI KMCF 052032Z AUTO VRB06KT 10SM CLR 30/23 A3010 RMK AO2 LTG DSNT NW-NE AND S-SW TSE32

More Conditions Fewer Conditions

10-Day Weather Forecast

×

Almanac

Astronomy

Jul. 05, 2015 Rise Set
Actual Time
Civil Twilight
Nautical Twilight
Astronomical Twilight
Moon
Length of Visible Light
Length of Day
Tomorrow will be .
, % of the Moon is Illuminated

Today's Extremes

State Highs State Lows

Community

WunderPhotos

Upload Photos

1,835,379 photos uploaded!

WunderBlogs® & News

Nearby

Air Quality

  Air Quality AQ Index Pollutant
Not available.

Snow Depth

Station Depth Elevation

Earthquake Activity

City Distance Mag. Time & Date
Minimum magnitude displayed is 2.5.

Coastal Water Temperatures

Place Temperature

Stations

Nearby Weather Stations

Station Location Temp. Windchill Dew Point Humidity Wind Precip. Elev Updated Type